Time;durP1;ratioP1;P1;durP2;ratioP2;P2;SDS_P1;SDS_P2;PMS_P1;PMS_P2;Temp;Humidity;BMP_temperature;BMP_pressure;BME280_temperature;BME280_humidity;BME280_pressure;Samples;Min_cycle;Max_cycle;Signal;HPM_P1;HPM_P2
2021/12/16 00:06:58;;;;;;;6.10;3.57;;;8.10;99.90;;;;;;5065476;28;21691;-46
2021/12/16 00:09:36;;;;;;;6.37;3.60;;;8.10;99.90;;;;;;5054770;28;20212;-47
2021/12/16 00:31:25;;;;;;;5.77;3.40;;;8.10;99.90;;;;;;5047236;28;20230;-46
2021/12/16 00:34:03;;;;;;;5.57;3.80;;;8.10;99.90;;;;;;5081086;27;21089;-46
2021/12/16 00:36:36;;;;;;;8.07;4.17;;;8.10;99.90;;;;;;5074147;28;20219;-47
2021/12/16 00:39:12;;;;;;;10.83;4.07;;;8.10;99.90;;;;;;5064552;28;20216;-46
2021/12/16 00:41:41;;;;;;;8.87;3.97;;;8.10;99.90;;;;;;5054155;28;20608;-47
2021/12/16 00:44:19;;;;;;;7.10;3.97;;;8.10;99.90;;;;;;5051280;27;20232;-46
2021/12/16 00:49:38;;;;;;;5.27;3.87;;;8.10;99.90;;;;;;5064114;27;21799;-47
2021/12/16 00:55:03;;;;;;;6.23;4.23;;;8.10;99.90;;;;;;5078888;28;20229;-47
2021/12/16 00:57:31;;;;;;;8.07;3.70;;;8.10;99.90;;;;;;5047730;28;20276;-47
2021/12/16 01:00:02;;;;;;;10.60;4.23;;;8.10;99.90;;;;;;5066813;28;20673;-46
2021/12/16 01:02:53;;;;;;;6.10;3.87;;;8.10;99.90;;;;;;5037592;28;20230;-47
2021/12/16 01:08:22;;;;;;;10.20;4.53;;;8.10;99.90;;;;;;5069585;28;20213;-46
2021/12/16 01:35:56;;;;;;;12.17;4.77;;;8.00;99.90;;;;;;5033819;27;21849;-47
2021/12/16 01:39:09;;;;;;;7.90;4.57;;;8.00;99.90;;;;;;5051862;28;20234;-47
2021/12/16 01:42:14;;;;;;;12.03;5.27;;;8.00;99.90;;;;;;5045743;28;20570;-47
2021/12/16 01:50:07;;;;;;;10.57;5.63;;;8.10;99.90;;;;;;5073845;27;20212;-47
2021/12/16 01:53:01;;;;;;;13.73;5.37;;;8.10;99.90;;;;;;5046234;27;20524;-47
2021/12/16 01:55:39;;;;;;;12.07;5.10;;;8.10;99.90;;;;;;5052778;27;20219;-47
2021/12/16 01:58:15;;;;;;;11.10;6.13;;;8.10;99.90;;;;;;5070617;28;25335;-47
2021/12/16 02:00:56;;;;;;;9.47;5.57;;;8.10;99.90;;;;;;5047668;28;21079;-48
2021/12/16 02:03:26;;;;;;;15.10;5.80;;;8.10;99.90;;;;;;5057776;28;20223;-47
2021/12/16 02:06:02;;;;;;;11.37;5.47;;;8.10;99.90;;;;;;5057775;28;20770;-47
2021/12/16 02:08:33;;;;;;;14.70;5.67;;;8.10;99.90;;;;;;5054408;28;20225;-47
2021/12/16 02:11:22;;;;;;;11.67;5.20;;;8.10;99.90;;;;;;5087281;28;20806;-47
2021/12/16 02:28:05;;;;;;;10.83;5.97;;;8.20;99.90;;;;;;5073926;28;20708;-47
2021/12/16 02:33:49;;;;;;;11.53;5.83;;;8.20;99.90;;;;;;5076123;28;20525;-48
2021/12/16 02:36:25;;;;;;;15.80;6.70;;;8.20;99.90;;;;;;5082164;28;20581;-48
2021/12/16 02:38:57;;;;;;;16.03;6.30;;;8.20;99.90;;;;;;5057093;28;20218;-48
2021/12/16 02:41:25;;;;;;;12.30;6.73;;;8.20;99.90;;;;;;5068001;27;20204;-48
2021/12/16 02:44:12;;;;;;;13.93;7.07;;;8.20;99.90;;;;;;5063243;28;20852;-49
2021/12/16 02:49:25;;;;;;;15.30;6.40;;;8.20;99.90;;;;;;5082826;27;20534;-48
2021/12/16 02:51:52;;;;;;;14.10;7.00;;;8.20;99.90;;;;;;5067105;28;21366;-47
2021/12/16 02:54:21;;;;;;;12.00;6.17;;;8.20;99.90;;;;;;5063154;28;20239;-48
2021/12/16 02:56:48;;;;;;;14.53;6.43;;;8.30;99.90;;;;;;5066597;27;20993;-47
2021/12/16 02:59:18;;;;;;;12.43;7.13;;;8.30;99.90;;;;;;5069903;28;20238;-48
2021/12/16 03:01:50;;;;;;;18.80;7.03;;;8.30;99.90;;;;;;5054519;28;20324;-48
2021/12/16 03:04:19;;;;;;;13.03;6.20;;;8.30;99.90;;;;;;5078725;28;20323;-48
2021/12/16 03:06:49;;;;;;;15.43;7.40;;;8.30;99.90;;;;;;5063278;27;20868;-49
2021/12/16 03:09:29;;;;;;;16.90;7.53;;;8.40;99.90;;;;;;5048239;27;20449;-48
2021/12/16 03:12:27;;;;;;;21.13;7.60;;;8.40;99.90;;;;;;5068572;27;20258;-48
2021/12/16 03:14:49;;;;;;;14.47;7.27;;;8.40;99.90;;;;;;5066180;28;20234;-48
2021/12/16 03:17:22;;;;;;;10.93;7.17;;;8.40;99.90;;;;;;5063861;28;20215;-48
2021/12/16 03:20:00;;;;;;;20.47;7.53;;;8.40;99.90;;;;;;5077169;28;20714;-47
2021/12/16 03:22:48;;;;;;;16.17;8.10;;;8.40;99.90;;;;;;5064861;28;20751;-48
2021/12/16 03:25:23;;;;;;;14.90;7.60;;;8.40;99.90;;;;;;5051623;28;20232;-48
2021/12/16 03:36:26;;;;;;;25.30;8.43;;;8.50;99.90;;;;;;5073052;27;20291;-43
2021/12/16 03:38:56;;;;;;;22.07;8.33;;;8.40;99.90;;;;;;5061009;28;20301;-43
2021/12/16 03:41:25;;;;;;;17.87;8.00;;;8.50;99.90;;;;;;5068178;28;20433;-43
2021/12/16 03:43:55;;;;;;;18.93;8.53;;;8.40;99.90;;;;;;5057295;28;20850;-43
2021/12/16 03:46:27;;;;;;;21.13;8.40;;;8.40;99.90;;;;;;5058462;28;20223;-43
2021/12/16 03:48:59;;;;;;;15.80;8.13;;;8.50;99.90;;;;;;5062129;28;20215;-43
2021/12/16 03:51:29;;;;;;;22.70;8.93;;;8.50;99.90;;;;;;5078288;27;20233;-43
2021/12/16 03:54:00;;;;;;;23.60;9.03;;;8.50;99.90;;;;;;5054456;28;20239;-43
2021/12/16 03:56:30;;;;;;;25.40;8.87;;;8.50;99.90;;;;;;5070112;28;20292;-43
2021/12/16 03:58:57;;;;;;;19.27;9.70;;;8.50;99.90;;;;;;5050346;28;20238;-43
2021/12/16 04:01:27;;;;;;;17.63;8.50;;;8.50;99.90;;;;;;5060428;27;20238;-43
2021/12/16 04:03:55;;;;;;;24.43;9.17;;;8.50;99.90;;;;;;5069517;27;20329;-43
2021/12/16 04:06:25;;;;;;;19.93;9.77;;;8.50;99.90;;;;;;5081509;28;20207;-43
2021/12/16 04:08:54;;;;;;;19.13;9.60;;;8.60;99.90;;;;;;5051622;28;20216;-43
2021/12/16 04:11:24;;;;;;;25.53;10.80;;;8.50;99.90;;;;;;5063767;27;21226;-43
2021/12/16 04:13:56;;;;;;;26.17;10.27;;;8.60;99.90;;;;;;5064144;28;20238;-43
2021/12/16 04:16:27;;;;;;;24.50;10.77;;;8.60;99.90;;;;;;5056578;28;20862;-43
2021/12/16 04:18:55;;;;;;;24.67;9.93;;;8.60;99.90;;;;;;5063345;28;20212;-43
2021/12/16 04:21:25;;;;;;;26.63;9.17;;;8.60;99.90;;;;;;5060188;27;20223;-43
2021/12/16 04:23:53;;;;;;;23.87;10.33;;;8.60;99.90;;;;;;5048464;27;20779;-44
2021/12/16 04:26:21;;;;;;;29.67;11.07;;;8.60;99.90;;;;;;5077372;28;20201;-43
2021/12/16 04:28:48;;;;;;;30.37;10.87;;;8.50;99.90;;;;;;5048173;28;22772;-52
2021/12/16 04:31:16;;;;;;;22.60;10.87;;;8.50;99.90;;;;;;5061236;27;20207;-43
2021/12/16 04:33:43;;;;;;;21.57;9.00;;;8.50;99.90;;;;;;5044355;28;20266;-43
2021/12/16 04:36:12;;;;;;;29.73;10.57;;;8.60;99.90;;;;;;5051268;28;20728;-43
2021/12/16 04:38:41;;;;;;;20.10;9.53;;;8.60;99.90;;;;;;5050186;28;20234;-44
2021/12/16 04:41:11;;;;;;;31.83;10.73;;;8.60;99.90;;;;;;5061502;28;20228;-43
2021/12/16 04:43:40;;;;;;;26.37;9.93;;;8.60;99.90;;;;;;5049684;28;20232;-43
2021/12/16 04:46:09;;;;;;;30.43;10.47;;;8.60;99.90;;;;;;5074802;28;20694;-43
2021/12/16 04:48:39;;;;;;;25.30;10.30;;;8.60;99.90;;;;;;5038575;27;21242;-44
2021/12/16 04:51:08;;;;;;;35.07;10.17;;;8.60;99.90;;;;;;5057323;28;21092;-44
2021/12/16 04:53:37;;;;;;;22.17;10.37;;;8.60;99.90;;;;;;5063701;28;20222;-44
2021/12/16 04:56:08;;;;;;;31.57;10.33;;;8.60;99.90;;;;;;5074743;28;20708;-44
2021/12/16 04:58:35;;;;;;;31.47;10.70;;;8.60;99.90;;;;;;5063768;28;20207;-44
2021/12/16 05:01:03;;;;;;;27.83;11.00;;;8.60;99.90;;;;;;5050625;28;20800;-44
2021/12/16 05:03:30;;;;;;;32.70;10.13;;;8.60;99.90;;;;;;5061079;28;20689;-44
2021/12/16 05:05:59;;;;;;;23.30;11.47;;;8.60;99.90;;;;;;5049809;28;20220;-45
2021/12/16 05:08:27;;;;;;;28.83;10.90;;;8.60;99.90;;;;;;5070428;28;20302;-44
2021/12/16 05:10:57;;;;;;;34.90;11.47;;;8.60;99.90;;;;;;5053434;28;20222;-47
2021/12/16 05:13:26;;;;;;;32.00;10.97;;;8.60;99.90;;;;;;5057698;28;20207;-47
2021/12/16 05:15:55;;;;;;;28.90;11.33;;;8.70;99.90;;;;;;5066152;28;20207;-47
2021/12/16 05:18:26;;;;;;;31.37;11.23;;;8.60;99.90;;;;;;5068366;28;20204;-47
2021/12/16 05:20:55;;;;;;;31.70;11.23;;;8.60;99.90;;;;;;5040466;28;20247;-47
2021/12/16 05:26:17;;;;;;;28.20;10.90;;;8.70;99.90;;;;;;5061121;28;20303;-47
2021/12/16 05:28:48;;;;;;;27.60;10.10;;;8.70;99.90;;;;;;5062922;28;20235;-46
2021/12/16 05:31:16;;;;;;;24.80;10.57;;;8.60;99.90;;;;;;5052972;28;20596;-47
2021/12/16 05:33:43;;;;;;;24.80;9.83;;;8.60;99.90;;;;;;5065147;28;20231;-47
2021/12/16 05:36:10;;;;;;;36.93;10.80;;;8.60;99.90;;;;;;5053428;28;20215;-47
2021/12/16 05:38:39;;;;;;;26.83;10.60;;;8.60;99.90;;;;;;5059864;28;20238;-47
2021/12/16 05:41:08;;;;;;;32.07;9.97;;;8.60;99.90;;;;;;5043605;28;20227;-44
2021/12/16 05:43:36;;;;;;;29.57;10.83;;;8.60;99.90;;;;;;5052762;28;20226;-44
2021/12/16 05:46:04;;;;;;;30.67;9.53;;;8.60;99.90;;;;;;5062895;28;20200;-43
2021/12/16 05:48:34;;;;;;;31.20;10.77;;;8.60;99.90;;;;;;5074850;28;20334;-44
2021/12/16 05:51:04;;;;;;;31.10;10.43;;;8.60;99.90;;;;;;5040471;28;20201;-43
2021/12/16 05:53:32;;;;;;;25.47;9.23;;;8.60;99.90;;;;;;5056846;28;20806;-43
2021/12/16 05:56:00;;;;;;;31.03;10.10;;;8.60;99.90;;;;;;5051451;28;20223;-43
2021/12/16 05:58:28;;;;;;;26.27;10.07;;;8.60;99.90;;;;;;5052171;28;23383;-43
2021/12/16 06:01:01;;;;;;;31.97;9.67;;;8.60;99.90;;;;;;5065895;28;20215;-44
2021/12/16 06:03:28;;;;;;;32.17;10.50;;;8.70;99.90;;;;;;5062099;28;20198;-43
2021/12/16 06:05:55;;;;;;;25.80;10.53;;;8.60;99.90;;;;;;5058186;28;20204;-43
2021/12/16 06:08:23;;;;;;;24.53;9.70;;;8.70;99.90;;;;;;5031628;28;20213;-43
2021/12/16 06:13:42;;;;;;;25.13;10.00;;;8.70;99.90;;;;;;5062690;28;20297;-43
2021/12/16 06:27:09;;;;;;;24.67;10.33;;;8.70;99.90;;;;;;5048814;28;20295;-48
2021/12/16 06:29:40;;;;;;;27.73;10.57;;;8.70;99.90;;;;;;5059574;28;20214;-47
2021/12/16 06:32:08;;;;;;;31.93;9.70;;;8.70;99.90;;;;;;5070078;28;20203;-48
2021/12/16 06:34:35;;;;;;;24.27;10.27;;;8.70;99.90;;;;;;5049207;28;20227;-48
2021/12/16 06:37:03;;;;;;;28.30;9.57;;;8.70;99.90;;;;;;5053706;28;20216;-47
2021/12/16 06:39:30;;;;;;;28.03;9.50;;;8.70;99.90;;;;;;5048787;28;21425;-47
2021/12/16 06:41:58;;;;;;;22.53;9.47;;;8.70;99.90;;;;;;5058138;28;20222;-48
2021/12/16 06:44:30;;;;;;;20.27;9.43;;;8.70;99.90;;;;;;5047902;28;20349;-47
2021/12/16 06:47:03;;;;;;;27.33;9.43;;;8.70;99.90;;;;;;5072542;28;20204;-47
2021/12/16 06:49:31;;;;;;;23.63;9.40;;;8.60;99.90;;;;;;5047749;28;20510;-48
2021/12/16 06:52:01;;;;;;;29.03;10.13;;;8.70;99.90;;;;;;5072823;28;20208;-49
2021/12/16 06:54:34;;;;;;;24.70;10.40;;;8.70;99.90;;;;;;5043038;28;20227;-48
2021/12/16 06:57:17;;;;;;;25.17;10.97;;;8.70;99.90;;;;;;5064526;28;20936;-48
2021/12/16 06:59:52;;;;;;;31.67;10.50;;;8.70;99.90;;;;;;5057502;28;20215;-48
2021/12/16 07:02:38;;;;;;;21.83;10.20;;;8.70;99.90;;;;;;5077258;28;20196;-49
2021/12/16 07:05:08;;;;;;;25.23;10.47;;;8.70;99.90;;;;;;5062295;28;20212;-48
2021/12/16 07:07:35;;;;;;;25.87;9.87;;;8.70;99.90;;;;;;5063527;28;20212;-48
2021/12/16 07:10:03;;;;;;;26.00;10.60;;;8.70;99.90;;;;;;5057812;28;20204;-48
2021/12/16 07:12:36;;;;;;;31.27;11.10;;;8.70;99.90;;;;;;5062727;28;20208;-48
2021/12/16 07:15:08;;;;;;;27.83;10.30;;;8.70;99.90;;;;;;5064791;28;20248;-49
2021/12/16 07:17:37;;;;;;;28.00;9.97;;;8.70;99.90;;;;;;5058844;28;20265;-48
2021/12/16 07:20:05;;;;;;;29.53;11.60;;;8.70;99.90;;;;;;5063966;28;20270;-48
2021/12/16 07:22:33;;;;;;;30.00;10.83;;;8.70;99.90;;;;;;5065352;28;20674;-47
2021/12/16 07:25:01;;;;;;;23.60;10.07;;;8.70;99.90;;;;;;5049645;28;20224;-48
2021/12/16 07:27:28;;;;;;;30.27;11.17;;;8.70;99.90;;;;;;5064006;28;20208;-49
2021/12/16 07:29:55;;;;;;;27.23;11.63;;;8.80;99.90;;;;;;5064085;28;20227;-48
2021/12/16 07:32:22;;;;;;;29.47;12.03;;;9.10;99.90;;;;;;5068578;28;20207;-49
2021/12/16 07:34:50;;;;;;;24.60;11.40;;;9.20;99.90;;;;;;5069515;28;20780;-48
2021/12/16 07:37:17;;;;;;;24.60;9.87;;;9.10;99.90;;;;;;5076142;28;20207;-48
2021/12/16 07:39:45;;;;;;;25.23;10.33;;;9.00;99.90;;;;;;5070846;28;20197;-48
2021/12/16 07:42:22;;;;;;;26.40;10.85;;;8.90;99.90;;;;;;5069807;28;20203;-49
2021/12/16 07:44:49;;;;;;;31.30;10.55;;;8.90;99.90;;;;;;5064103;28;20602;-48
2021/12/16 07:47:16;;;;;;;35.73;11.23;;;8.90;99.90;;;;;;5074027;28;20199;-48
2021/12/16 07:49:44;;;;;;;23.50;10.23;;;8.90;99.90;;;;;;5076843;28;20200;-48
2021/12/16 07:52:16;;;;;;;29.97;10.93;;;8.80;99.90;;;;;;5081578;28;20204;-49
2021/12/16 07:54:44;;;;;;;23.08;11.40;;;8.80;99.90;;;;;;5073246;28;20246;-49
2021/12/16 07:57:11;;;;;;;22.67;10.57;;;8.80;99.90;;;;;;5072550;28;20204;-48
2021/12/16 07:59:38;;;;;;;34.23;11.77;;;8.80;99.90;;;;;;5060076;28;20208;-48
2021/12/16 08:02:11;;;;;;;32.63;11.33;;;8.80;99.90;;;;;;5062451;28;20231;-48
2021/12/16 08:04:42;;;;;;;29.10;11.13;;;8.80;99.90;;;;;;5076817;28;20247;-48
2021/12/16 08:07:14;;;;;;;35.43;11.83;;;8.80;99.90;;;;;;5078875;28;20202;-48
2021/12/16 08:09:41;;;;;;;32.20;11.73;;;8.80;99.90;;;;;;5077943;28;20264;-48
2021/12/16 08:12:12;;;;;;;30.60;11.20;;;8.80;99.90;;;;;;5071755;28;20432;-48
2021/12/16 08:14:39;;;;;;;30.30;11.93;;;8.80;99.90;;;;;;5072885;28;20227;-48
2021/12/16 08:17:06;;;;;;;24.23;11.73;;;8.80;99.90;;;;;;5063864;28;20196;-44
2021/12/16 08:19:33;;;;;;;32.92;12.73;;;8.80;99.90;;;;;;5076358;28;20938;-44
2021/12/16 08:22:00;;;;;;;31.50;11.90;;;8.80;99.90;;;;;;5067421;28;20249;-44
2021/12/16 08:24:28;;;;;;;30.77;12.30;;;8.80;99.90;;;;;;5072195;28;20902;-44
2021/12/16 08:26:55;;;;;;;33.57;12.40;;;8.80;99.90;;;;;;5076517;28;20211;-44
2021/12/16 08:29:24;;;;;;;30.87;12.77;;;8.90;99.90;;;;;;5055668;28;20204;-45
2021/12/16 08:31:52;;;;;;;36.90;12.50;;;8.80;99.90;;;;;;5065132;28;20210;-44
2021/12/16 08:34:19;;;;;;;31.73;11.87;;;8.90;99.90;;;;;;5074843;28;20490;-44
2021/12/16 08:36:47;;;;;;;28.67;12.93;;;8.90;99.90;;;;;;5071657;28;20573;-45
2021/12/16 08:39:14;;;;;;;28.67;12.67;;;8.80;99.90;;;;;;5074876;27;20211;-44
2021/12/16 08:41:46;;;;;;;30.93;13.37;;;8.90;99.90;;;;;;5081325;28;20224;-44
2021/12/16 08:44:13;;;;;;;39.00;13.23;;;8.90;99.90;;;;;;5074552;28;20220;-44
2021/12/16 08:46:45;;;;;;;40.73;13.57;;;8.90;99.90;;;;;;5071033;28;20196;-44
2021/12/16 08:49:12;;;;;;;33.83;13.87;;;8.80;99.90;;;;;;5063801;28;20296;-45
2021/12/16 08:51:48;;;;;;;33.33;13.50;;;8.80;99.90;;;;;;5068320;28;20211;-44
2021/12/16 08:54:16;;;;;;;34.33;12.73;;;8.80;99.90;;;;;;5059621;28;20226;-44
2021/12/16 08:56:44;;;;;;;35.03;12.60;;;8.90;99.90;;;;;;5072066;28;20214;-44
2021/12/16 08:59:12;;;;;;;30.43;12.60;;;8.80;99.90;;;;;;5066765;28;20220;-44
2021/12/16 09:01:42;;;;;;;27.50;12.30;;;8.80;99.90;;;;;;5069108;27;20922;-44
2021/12/16 09:04:09;;;;;;;28.47;13.03;;;8.80;99.90;;;;;;5072943;28;20230;-44
2021/12/16 09:06:36;;;;;;;28.13;13.03;;;8.90;99.90;;;;;;5050958;28;20200;-44
2021/12/16 09:09:06;;;;;;;32.37;12.93;;;8.90;99.90;;;;;;5082328;28;20212;-44
2021/12/16 09:11:39;;;;;;;40.43;13.23;;;8.90;99.90;;;;;;5072165;28;20200;-44
2021/12/16 09:14:07;;;;;;;33.03;12.87;;;8.90;99.90;;;;;;5069948;28;20307;-44
2021/12/16 09:16:36;;;;;;;39.87;13.80;;;8.90;99.90;;;;;;5067503;28;20212;-45
2021/12/16 09:19:05;;;;;;;33.33;12.60;;;8.90;99.90;;;;;;5064937;27;20296;-44
2021/12/16 09:21:36;;;;;;;34.00;13.83;;;8.90;99.90;;;;;;5054483;28;21373;-44
2021/12/16 09:24:06;;;;;;;28.97;13.90;;;8.90;99.90;;;;;;5066029;28;20234;-44
2021/12/16 09:26:33;;;;;;;30.30;12.90;;;8.90;99.90;;;;;;5072028;28;20828;-44
2021/12/16 09:29:00;;;;;;;41.17;13.00;;;8.90;99.90;;;;;;5073802;28;20211;-44
2021/12/16 09:31:29;;;;;;;32.07;13.93;;;9.00;99.90;;;;;;5073475;28;20690;-44
2021/12/16 09:34:04;;;;;;;35.43;14.37;;;8.90;99.90;;;;;;5049234;28;20231;-44
2021/12/16 09:36:32;;;;;;;43.03;14.07;;;8.90;99.90;;;;;;5046608;28;20643;-44
2021/12/16 09:38:59;;;;;;;30.03;13.90;;;8.90;99.90;;;;;;5067418;28;20566;-44
2021/12/16 09:41:28;;;;;;;29.87;13.17;;;8.90;99.90;;;;;;5066801;28;20230;-44
2021/12/16 09:43:57;;;;;;;38.77;14.77;;;9.00;99.90;;;;;;5084455;28;20230;-44
2021/12/16 09:46:27;;;;;;;33.67;13.17;;;9.00;99.90;;;;;;5061057;28;20235;-44
2021/12/16 09:48:57;;;;;;;30.53;12.97;;;9.00;99.90;;;;;;5067858;28;20208;-44
2021/12/16 09:51:27;;;;;;;31.60;14.13;;;9.00;99.90;;;;;;5050747;28;20403;-44
2021/12/16 09:53:58;;;;;;;34.13;13.23;;;9.00;99.90;;;;;;5068017;28;20389;-44
2021/12/16 09:56:27;;;;;;;35.90;13.67;;;9.00;99.90;;;;;;5070185;28;20287;-44
2021/12/16 09:58:56;;;;;;;34.10;13.37;;;9.00;99.90;;;;;;5057050;28;20212;-44
2021/12/16 10:01:24;;;;;;;36.47;13.83;;;9.00;99.90;;;;;;5069550;28;20398;-45
2021/12/16 10:03:54;;;;;;;28.20;12.70;;;9.10;99.90;;;;;;5056082;28;20697;-45
2021/12/16 10:06:22;;;;;;;36.30;13.13;;;9.10;99.90;;;;;;5058094;28;20207;-45
2021/12/16 10:08:50;;;;;;;27.63;12.73;;;9.00;99.90;;;;;;5067838;27;20211;-44
2021/12/16 10:11:17;;;;;;;33.23;13.30;;;9.10;99.90;;;;;;5081132;28;20926;-45
2021/12/16 10:13:57;;;;;;;32.03;13.17;;;9.10;99.90;;;;;;5075083;28;20825;-44
2021/12/16 10:19:09;;;;;;;30.50;12.63;;;9.10;99.90;;;;;;5062829;28;20392;-48
2021/12/16 10:21:41;;;;;;;39.07;13.13;;;9.10;99.90;;;;;;5065560;28;20576;-47
2021/12/16 10:24:21;;;;;;;27.38;13.45;;;9.20;99.90;;;;;;5069924;28;20471;-47
2021/12/16 10:27:05;;;;;;;33.13;13.03;;;9.20;99.90;;;;;;5081615;28;20195;-47
2021/12/16 10:29:35;;;;;;;31.70;12.90;;;9.20;99.90;;;;;;5059728;28;20918;-47
2021/12/16 10:32:02;;;;;;;34.80;12.45;;;9.20;99.90;;;;;;5048187;28;20713;-47
2021/12/16 10:34:29;;;;;;;29.07;11.77;;;9.20;99.90;;;;;;5039134;28;22685;-48
2021/12/16 10:36:59;;;;;;;34.33;13.00;;;9.20;99.90;;;;;;5057309;28;20827;-47
2021/12/16 10:39:26;;;;;;;24.20;11.80;;;9.20;99.90;;;;;;5046689;28;20208;-47
2021/12/16 10:41:56;;;;;;;27.97;13.03;;;9.30;99.90;;;;;;5061490;28;20250;-47
2021/12/16 10:44:25;;;;;;;39.67;14.00;;;9.30;99.90;;;;;;5055097;28;20701;-48
2021/12/16 10:46:59;;;;;;;27.77;13.00;;;9.20;99.90;;;;;;5063351;28;20234;-47
2021/12/16 10:49:28;;;;;;;34.37;12.87;;;9.20;99.90;;;;;;5051582;28;20471;-47
2021/12/16 10:51:59;;;;;;;30.88;13.30;;;9.20;99.90;;;;;;5078655;28;20204;-47
2021/12/16 10:54:28;;;;;;;28.70;13.43;;;9.30;99.90;;;;;;5046197;28;20423;-47
2021/12/16 10:56:59;;;;;;;30.47;13.07;;;9.30;99.90;;;;;;5066453;28;20244;-47
2021/12/16 10:59:31;;;;;;;40.43;13.87;;;9.30;99.90;;;;;;5071417;28;20208;-47
2021/12/16 11:02:02;;;;;;;30.33;13.20;;;9.20;99.90;;;;;;5074249;28;20220;-47
2021/12/16 11:04:37;;;;;;;41.35;15.35;;;9.30;99.90;;;;;;5076929;28;20223;-47
2021/12/16 11:07:10;;;;;;;32.97;13.00;;;9.30;99.90;;;;;;5071337;28;20203;-45
2021/12/16 11:09:54;;;;;;;32.07;14.37;;;9.30;99.90;;;;;;5055812;28;20424;-44
2021/12/16 11:12:40;;;;;;;41.07;13.83;;;9.30;99.90;;;;;;5072915;28;20231;-45
2021/12/16 11:15:17;;;;;;;35.63;14.13;;;9.30;99.90;;;;;;5071651;28;20233;-44
2021/12/16 11:17:47;;;;;;;31.17;13.20;;;9.30;99.90;;;;;;5078889;28;20208;-45
2021/12/16 11:20:35;;;;;;;29.90;13.27;;;9.30;99.90;;;;;;5072660;28;20619;-45
2021/12/16 11:23:06;;;;;;;40.40;13.90;;;9.30;99.90;;;;;;5055529;28;20452;-45
2021/12/16 11:25:37;;;;;;;33.60;13.70;;;9.40;99.90;;;;;;5063703;28;20424;-44
2021/12/16 11:28:16;;;;;;;31.87;13.53;;;9.40;99.90;;;;;;5063856;28;20209;-44
2021/12/16 11:30:52;;;;;;;30.07;14.10;;;9.40;99.90;;;;;;5078735;28;20200;-44
2021/12/16 11:33:23;;;;;;;33.80;13.47;;;9.40;99.90;;;;;;5077728;28;20215;-44
2021/12/16 11:35:58;;;;;;;36.97;12.68;;;9.40;99.90;;;;;;5084593;28;20196;-45
2021/12/16 11:38:39;;;;;;;30.03;13.87;;;9.40;99.90;;;;;;5062979;28;20201;-48
2021/12/16 11:41:27;;;;;;;23.20;12.63;;;9.40;99.90;;;;;;5048936;27;20391;-48
2021/12/16 11:44:00;;;;;;;26.87;13.03;;;9.40;99.90;;;;;;5076310;28;20604;-48
2021/12/16 11:46:31;;;;;;;27.42;12.07;;;9.40;99.90;;;;;;5074969;28;20445;-48
2021/12/16 11:49:01;;;;;;;32.55;12.30;;;9.40;99.90;;;;;;5073567;28;20207;-48
2021/12/16 11:51:34;;;;;;;31.08;12.27;;;9.50;99.90;;;;;;5073319;28;20196;-48
2021/12/16 11:54:07;;;;;;;26.43;12.87;;;9.40;99.90;;;;;;5047685;28;20228;-48
2021/12/16 11:56:40;;;;;;;25.47;11.47;;;9.50;99.90;;;;;;5066390;28;20212;-48
2021/12/16 11:59:07;;;;;;;28.20;11.33;;;9.50;99.90;;;;;;5058192;27;20769;-48
2021/12/16 12:01:37;;;;;;;25.50;11.63;;;9.50;99.90;;;;;;5055465;28;20226;-48
2021/12/16 12:04:07;;;;;;;27.70;11.23;;;9.50;99.90;;;;;;5077249;28;20232;-48
2021/12/16 12:06:36;;;;;;;21.93;10.90;;;9.50;99.90;;;;;;5059981;28;20622;-48
2021/12/16 12:09:09;;;;;;;24.88;10.35;;;9.50;99.90;;;;;;5071872;28;20208;-47
2021/12/16 12:11:40;;;;;;;19.60;9.65;;;9.50;99.90;;;;;;5061870;28;20674;-48
2021/12/16 12:14:09;;;;;;;24.48;9.70;;;9.60;99.90;;;;;;5062553;28;20228;-48
2021/12/16 12:16:39;;;;;;;19.00;9.73;;;9.50;99.90;;;;;;5051872;28;20204;-48
2021/12/16 12:19:13;;;;;;;20.10;9.10;;;9.50;99.90;;;;;;5084531;28;20412;-48
2021/12/16 12:21:43;;;;;;;17.50;6.80;;;9.50;99.90;;;;;;5054879;28;20343;-48
2021/12/16 12:24:16;;;;;;;12.93;6.28;;;9.50;99.90;;;;;;5063612;28;20538;-48
2021/12/16 12:26:48;;;;;;;12.40;5.95;;;9.50;99.90;;;;;;5059264;28;20212;-47
2021/12/16 12:29:19;;;;;;;10.30;5.93;;;9.50;99.90;;;;;;5067877;28;20691;-48
2021/12/16 12:31:48;;;;;;;10.73;5.82;;;9.50;99.90;;;;;;5042206;28;20343;-47
2021/12/16 12:34:16;;;;;;;10.87;5.97;;;9.50;99.90;;;;;;5088513;28;20223;-47
2021/12/16 12:36:45;;;;;;;12.25;5.65;;;9.50;99.90;;;;;;5062915;28;20249;-47
2021/12/16 12:39:18;;;;;;;17.60;6.53;;;9.50;99.90;;;;;;5067630;28;20228;-48
2021/12/16 12:41:46;;;;;;;9.87;5.80;;;9.50;99.90;;;;;;5042118;28;20219;-47
2021/12/16 12:44:13;;;;;;;11.10;6.35;;;9.50;99.90;;;;;;5061319;28;20253;-47
2021/12/16 12:46:42;;;;;;;13.90;6.32;;;9.50;99.90;;;;;;5061576;28;20203;-47
2021/12/16 12:49:12;;;;;;;16.00;6.80;;;9.50;99.90;;;;;;5074912;28;20744;-46
2021/12/16 12:51:41;;;;;;;14.40;8.07;;;9.60;99.90;;;;;;5060887;28;20578;-47
2021/12/16 12:54:22;;;;;;;17.40;7.87;;;9.60;99.90;;;;;;5045876;28;20228;-44
2021/12/16 12:56:51;;;;;;;11.07;7.37;;;9.60;99.90;;;;;;5057162;28;20207;-44
2021/12/16 12:59:18;;;;;;;13.13;7.30;;;9.50;99.90;;;;;;5040060;28;20212;-44
2021/12/16 13:01:50;;;;;;;15.03;7.30;;;9.50;99.90;;;;;;5049205;28;20228;-44
2021/12/16 13:04:23;;;;;;;16.67;6.20;;;9.50;99.90;;;;;;5060331;28;20231;-44
2021/12/16 13:06:58;;;;;;;9.03;5.00;;;9.50;99.90;;;;;;5052979;28;20506;-44
2021/12/16 13:09:31;;;;;;;16.38;6.15;;;9.50;99.90;;;;;;5052437;28;20376;-44
2021/12/16 13:11:58;;;;;;;10.27;5.22;;;9.50;99.90;;;;;;5042237;28;20304;-44
2021/12/16 13:14:44;;;;;;;13.13;5.80;;;9.50;99.90;;;;;;5037048;28;20233;-44
2021/12/16 13:23:16;;;;;;;11.37;5.50;;;9.50;99.90;;;;;;5063017;28;20303;-44
2021/12/16 13:26:21;;;;;;;12.67;5.30;;;9.40;99.90;;;;;;5052476;28;20501;-47
2021/12/16 13:29:02;;;;;;;10.17;4.70;;;9.50;99.90;;;;;;5045255;28;20241;-47
2021/12/16 13:31:36;;;;;;;11.00;4.67;;;9.40;99.90;;;;;;5055454;28;20247;-48
2021/12/16 13:34:03;;;;;;;9.83;5.70;;;9.40;99.90;;;;;;5043796;28;20255;-48
2021/12/16 13:36:42;;;;;;;10.68;5.07;;;9.50;99.90;;;;;;5031173;28;21547;-48
2021/12/16 13:39:12;;;;;;;14.53;5.37;;;9.40;99.90;;;;;;5048507;28;21266;-48
2021/12/16 13:41:58;;;;;;;8.93;5.30;;;9.50;99.90;;;;;;5050819;28;20229;-47
2021/12/16 13:44:43;;;;;;;8.30;4.67;;;9.50;99.90;;;;;;5039172;28;20243;-47
2021/12/16 13:47:19;;;;;;;12.80;5.90;;;9.50;99.90;;;;;;5055344;28;20218;-47
2021/12/16 14:01:50;;;;;;;10.30;5.30;;;9.50;99.90;;;;;;5051147;28;20714;-47
2021/12/16 14:04:40;;;;;;;9.43;5.10;;;9.50;99.90;;;;;;5066938;28;20388;-48
2021/12/16 14:07:39;;;;;;;8.73;4.60;;;9.50;99.90;;;;;;5068231;28;20743;-47
2021/12/16 14:10:15;;;;;;;12.13;5.83;;;9.50;99.90;;;;;;5053699;28;20216;-48
2021/12/16 14:15:58;;;;;;;10.27;4.90;;;9.50;99.90;;;;;;5040163;28;20675;-47
2021/12/16 14:24:10;;;;;;;11.33;5.37;;;9.40;99.90;;;;;;5071797;28;20242;-47
2021/12/16 14:26:48;;;;;;;11.77;5.40;;;9.30;99.90;;;;;;5045921;28;20734;-47
2021/12/16 14:34:59;;;;;;;7.37;4.43;;;9.30;99.90;;;;;;5074224;28;20728;-47
2021/12/16 14:37:33;;;;;;;8.03;5.27;;;9.30;99.90;;;;;;5028836;28;20203;-47
2021/12/16 14:40:15;;;;;;;7.43;4.63;;;9.20;99.90;;;;;;5080184;27;20585;-47
2021/12/16 14:42:59;;;;;;;8.80;5.63;;;9.20;99.90;;;;;;5061169;28;21158;-47
2021/12/16 14:45:37;;;;;;;9.17;5.90;;;9.30;99.90;;;;;;5055121;28;21995;-47
2021/12/16 14:48:23;;;;;;;11.67;5.93;;;9.20;99.90;;;;;;5056644;28;20216;-47
2021/12/16 14:50:54;;;;;;;15.03;7.87;;;9.20;99.90;;;;;;5065025;28;20223;-47
2021/12/16 14:53:31;;;;;;;8.33;5.13;;;9.30;99.90;;;;;;5077085;28;20492;-47
2021/12/16 14:56:02;;;;;;;7.53;4.97;;;9.20;99.90;;;;;;5080698;28;20263;-46
2021/12/16 14:58:29;;;;;;;9.55;5.38;;;9.20;99.90;;;;;;5064013;28;20411;-47
2021/12/16 15:00:59;;;;;;;7.70;4.40;;;9.20;99.90;;;;;;5062306;28;20212;-47
2021/12/16 15:03:33;;;;;;;9.70;5.37;;;9.20;99.90;;;;;;5060673;28;20231;-46
2021/12/16 15:06:02;;;;;;;11.27;5.13;;;9.10;99.90;;;;;;5061805;28;20402;-47
2021/12/16 15:08:36;;;;;;;9.33;5.47;;;9.10;99.90;;;;;;5076364;28;20211;-46
2021/12/16 15:11:06;;;;;;;9.77;5.53;;;9.10;99.90;;;;;;5083241;28;20889;-47
2021/12/16 15:13:38;;;;;;;8.97;5.50;;;9.10;99.90;;;;;;5059369;28;20618;-46
2021/12/16 15:38:46;;;;;;;9.30;6.00;;;9.10;99.90;;;;;;5059296;28;20637;-46
2021/12/16 15:44:10;;;;;;;9.87;6.70;;;9.10;99.90;;;;;;5050444;28;20402;-43
2021/12/16 15:46:37;;;;;;;13.47;7.53;;;9.00;99.90;;;;;;5046717;28;20232;-43
2021/12/16 15:49:05;;;;;;;11.70;7.33;;;9.10;99.90;;;;;;5056969;28;20969;-43
2021/12/16 15:51:34;;;;;;;12.47;7.57;;;9.00;99.90;;;;;;5065590;28;20687;-43
2021/12/16 15:54:02;;;;;;;14.20;7.27;;;9.10;99.90;;;;;;5055339;28;20228;-43
2021/12/16 15:56:34;;;;;;;13.27;7.50;;;9.00;99.90;;;;;;5055068;28;20631;-43